Time;durP1;ratioP1;P1;durP2;ratioP2;P2;SDS_P1;SDS_P2;PMS_P1;PMS_P2;Temp;Humidity;BMP_temperature;BMP_pressure;BME280_temperature;BME280_humidity;BME280_pressure;Samples;Min_cycle;Max_cycle;Signal;HPM_P1;HPM_P2
2023/03/24 00:01:56;;;;;;;7.88;2.97;;;;;;;;;;7386799;19;19998;-71
2023/03/24 00:04:23;;;;;;;6.00;2.83;;;;;;;;;;7383017;19;19998;-71
2023/03/24 00:06:49;;;;;;;6.28;2.60;;;;;;;;;;7379725;19;20460;-72
2023/03/24 00:09:15;;;;;;;6.97;2.53;;;;;;;;;;7383887;19;20001;-71
2023/03/24 00:11:41;;;;;;;7.50;2.60;;;;;;;;;;7387153;19;19999;-72
2023/03/24 00:14:06;;;;;;;4.47;2.45;;;;;;;;;;7388050;19;20005;-72
2023/03/24 00:16:33;;;;;;;4.88;2.40;;;;;;;;;;7386462;19;19995;-71
2023/03/24 00:19:00;;;;;;;5.75;3.00;;;;;;;;;;7387945;19;20014;-71
2023/03/24 00:21:25;;;;;;;4.47;2.45;;;;;;;;;;7386712;19;20012;-69
2023/03/24 00:23:54;;;;;;;5.00;2.70;;;;;;;;;;7387005;19;19995;-72
2023/03/24 00:26:20;;;;;;;4.53;2.53;;;;;;;;;;7384568;19;20086;-73
2023/03/24 00:28:47;;;;;;;6.05;2.67;;;;;;;;;;7385577;19;19995;-70
2023/03/24 00:31:15;;;;;;;5.63;2.28;;;;;;;;;;7386543;19;19994;-72
2023/03/24 00:33:41;;;;;;;12.38;2.55;;;;;;;;;;7395569;19;20372;-71
2023/03/24 00:36:12;;;;;;;5.53;2.47;;;;;;;;;;7393558;19;20003;-71
2023/03/24 00:38:39;;;;;;;4.43;2.37;;;;;;;;;;7394822;19;19998;-72
2023/03/24 00:41:06;;;;;;;5.18;2.42;;;;;;;;;;7393959;19;20358;-72
2023/03/24 00:43:33;;;;;;;5.75;2.60;;;;;;;;;;7395044;19;20026;-69
2023/03/24 00:46:00;;;;;;;6.18;2.50;;;;;;;;;;7391524;19;20314;-71
2023/03/24 00:48:27;;;;;;;6.60;2.72;;;;;;;;;;7394247;19;20007;-70
2023/03/24 00:50:52;;;;;;;4.85;2.38;;;;;;;;;;7396449;19;20089;-70
2023/03/24 00:53:19;;;;;;;4.53;2.63;;;;;;;;;;7394510;19;20011;-69
2023/03/24 00:55:48;;;;;;;5.65;2.65;;;;;;;;;;7393687;19;20419;-71
2023/03/24 00:58:18;;;;;;;6.10;2.75;;;;;;;;;;7394403;19;20019;-71
2023/03/24 01:00:44;;;;;;;5.60;3.08;;;;;;;;;;7394521;19;20003;-71
2023/03/24 01:03:10;;;;;;;4.75;2.65;;;;;;;;;;7394271;19;20099;-70
2023/03/24 01:05:36;;;;;;;7.57;3.53;;;;;;;;;;7391611;19;20020;-70
2023/03/24 01:08:02;;;;;;;6.07;3.17;;;;;;;;;;7392944;19;20253;-70
2023/03/24 01:10:29;;;;;;;6.03;3.40;;;;;;;;;;7394235;19;19995;-72
2023/03/24 01:12:57;;;;;;;6.15;3.42;;;;;;;;;;7394345;19;19998;-72
2023/03/24 01:15:26;;;;;;;4.78;2.85;;;;;;;;;;7393747;19;20062;-70
2023/03/24 01:17:53;;;;;;;7.28;3.35;;;;;;;;;;7394346;19;20337;-71
2023/03/24 01:20:21;;;;;;;5.60;2.97;;;;;;;;;;7393338;19;19999;-70
2023/03/24 01:22:47;;;;;;;4.93;3.05;;;;;;;;;;7393625;19;20005;-72
2023/03/24 01:25:15;;;;;;;6.13;3.40;;;;;;;;;;7393526;19;19994;-71
2023/03/24 01:27:42;;;;;;;6.18;3.40;;;;;;;;;;7393426;19;20006;-70
2023/03/24 01:30:12;;;;;;;6.85;3.72;;;;;;;;;;7392717;19;20640;-71
2023/03/24 01:32:37;;;;;;;7.20;3.70;;;;;;;;;;7391903;19;20011;-71
2023/03/24 01:35:03;;;;;;;5.22;3.33;;;;;;;;;;7394395;19;20011;-71
2023/03/24 01:37:28;;;;;;;5.72;3.00;;;;;;;;;;7394595;19;20026;-69
2023/03/24 01:39:54;;;;;;;6.68;3.50;;;;;;;;;;7392955;19;20035;-70
2023/03/24 01:42:22;;;;;;;7.70;3.28;;;;;;;;;;7392018;19;19995;-70
2023/03/24 01:44:50;;;;;;;6.00;3.50;;;;;;;;;;7392635;19;19998;-71
2023/03/24 01:47:16;;;;;;;5.85;3.40;;;;;;;;;;7390523;19;20018;-72
2023/03/24 01:49:54;;;;;;;5.82;3.28;;;;;;;;;;7395376;19;20014;-70
2023/03/24 01:52:29;;;;;;;5.50;3.03;;;;;;;;;;7392185;19;19995;-70
2023/03/24 01:55:12;;;;;;;5.93;3.17;;;;;;;;;;7392185;19;20002;-69
2023/03/24 01:57:43;;;;;;;7.35;3.20;;;;;;;;;;7392250;19;19998;-70
2023/03/24 02:00:11;;;;;;;6.20;3.15;;;;;;;;;;7391454;19;20030;-71
2023/03/24 02:02:39;;;;;;;6.00;3.20;;;;;;;;;;7391893;19;19999;-71
2023/03/24 02:05:09;;;;;;;6.43;3.10;;;;;;;;;;7393464;19;20002;-71
2023/03/24 02:07:45;;;;;;;6.93;3.10;;;;;;;;;;7391946;19;19998;-70
2023/03/24 02:10:15;;;;;;;5.35;3.33;;;;;;;;;;7392847;19;20025;-70
2023/03/24 02:12:42;;;;;;;8.07;3.20;;;;;;;;;;7391745;19;20404;-71
2023/03/24 02:15:09;;;;;;;6.90;3.20;;;;;;;;;;7393035;19;20010;-71
2023/03/24 02:17:43;;;;;;;6.85;3.50;;;;;;;;;;7395349;19;20010;-70
2023/03/24 02:20:30;;;;;;;5.32;3.22;;;;;;;;;;7394138;19;20006;-69
2023/03/24 02:23:08;;;;;;;7.18;3.30;;;;;;;;;;7395318;19;20062;-71
2023/03/24 02:25:48;;;;;;;4.80;2.95;;;;;;;;;;7392051;19;20308;-70
2023/03/24 02:28:39;;;;;;;6.72;3.38;;;;;;;;;;7391066;19;20335;-71
2023/03/24 02:31:23;;;;;;;6.55;3.80;;;;;;;;;;7390480;19;19998;-71
2023/03/24 02:34:13;;;;;;;6.25;3.50;;;;;;;;;;7388867;19;20490;-72
2023/03/24 02:36:58;;;;;;;6.82;3.45;;;;;;;;;;7389278;19;20184;-72
2023/03/24 02:39:32;;;;;;;6.50;3.40;;;;;;;;;;7390905;19;20372;-71
2023/03/24 02:42:05;;;;;;;6.82;3.80;;;;;;;;;;7390107;19;20006;-71
2023/03/24 02:44:45;;;;;;;7.25;3.75;;;;;;;;;;7390652;19;20002;-72
2023/03/24 02:47:29;;;;;;;6.47;3.47;;;;;;;;;;7388155;19;20066;-71
2023/03/24 02:50:09;;;;;;;7.65;3.72;;;;;;;;;;7390470;19;20341;-71
2023/03/24 02:52:49;;;;;;;7.00;3.47;;;;;;;;;;7388353;19;20009;-71
2023/03/24 02:55:24;;;;;;;7.28;3.92;;;;;;;;;;7388659;19;20495;-70
2023/03/24 02:57:57;;;;;;;6.57;4.00;;;;;;;;;;7391490;19;20088;-71
2023/03/24 03:00:50;;;;;;;7.47;4.22;;;;;;;;;;7388004;19;20514;-71
2023/03/24 03:03:33;;;;;;;6.68;3.88;;;;;;;;;;7389806;19;20002;-71
2023/03/24 03:06:04;;;;;;;8.35;4.05;;;;;;;;;;7388903;19;20030;-71
2023/03/24 03:08:32;;;;;;;7.90;4.13;;;;;;;;;;7392134;19;19999;-72
2023/03/24 03:10:59;;;;;;;6.30;3.58;;;;;;;;;;7388876;19;19999;-72
2023/03/24 03:13:31;;;;;;;9.00;4.00;;;;;;;;;;7389623;19;20063;-70
2023/03/24 03:15:58;;;;;;;;;;;;;;;;;;7389469;19;20550;-71
2023/03/24 03:18:31;;;;;;;9.18;4.35;;;;;;;;;;7389419;19;19922;-71
2023/03/24 03:21:10;;;;;;;6.68;3.75;;;;;;;;;;7388913;19;20002;-70
2023/03/24 03:23:40;;;;;;;6.88;3.85;;;;;;;;;;7387736;19;20007;-70
2023/03/24 03:26:12;;;;;;;9.05;3.97;;;;;;;;;;7388286;19;20002;-70
2023/03/24 03:28:48;;;;;;;6.53;4.00;;;;;;;;;;7389114;19;20026;-71
2023/03/24 03:31:20;;;;;;;11.52;7.68;;;;;;;;;;7389044;19;20019;-72
2023/03/24 03:33:52;;;;;;;9.35;4.97;;;;;;;;;;7389173;19;20101;-71
2023/03/24 03:36:27;;;;;;;5.88;4.18;;;;;;;;;;7386667;19;20337;-71
2023/03/24 03:39:19;;;;;;;9.80;5.68;;;;;;;;;;7388971;19;19999;-71
2023/03/24 03:41:45;;;;;;;7.85;4.53;;;;;;;;;;7388841;19;20006;-70
2023/03/24 03:44:10;;;;;;;7.70;4.03;;;;;;;;;;7391882;19;20486;-72
2023/03/24 03:46:36;;;;;;;8.07;5.13;;;;;;;;;;7390367;19;20487;-70
2023/03/24 03:49:03;;;;;;;8.20;4.30;;;;;;;;;;7389569;19;20467;-71
2023/03/24 03:51:28;;;;;;;7.93;4.60;;;;;;;;;;7388062;19;20209;-72
2023/03/24 03:54:01;;;;;;;7.75;4.63;;;;;;;;;;7388764;19;20493;-70
2023/03/24 03:56:30;;;;;;;10.20;6.88;;;;;;;;;;7388171;19;20014;-71
2023/03/24 03:58:57;;;;;;;7.65;4.65;;;;;;;;;;7388809;19;20023;-71
2023/03/24 04:01:26;;;;;;;7.38;4.75;;;;;;;;;;7387940;19;20022;-72
2023/03/24 04:04:09;;;;;;;7.97;4.75;;;;;;;;;;7386694;19;20021;-71
2023/03/24 04:07:08;;;;;;;7.40;4.50;;;;;;;;;;7384502;19;20488;-70
2023/03/24 04:10:07;;;;;;;7.50;4.68;;;;;;;;;;7392718;19;20553;-71
2023/03/24 04:12:57;;;;;;;9.02;4.45;;;;;;;;;;7386544;19;20009;-70
2023/03/24 04:15:48;;;;;;;7.10;4.38;;;;;;;;;;7388427;19;20113;-70
2023/03/24 04:18:35;;;;;;;10.63;5.13;;;;;;;;;;7388820;19;20266;-71
2023/03/24 04:21:38;;;;;;;8.60;5.22;;;;;;;;;;7388451;19;20007;-71
2023/03/24 04:24:26;;;;;;;11.20;4.68;;;;;;;;;;7388194;19;20365;-70
2023/03/24 04:27:10;;;;;;;8.07;4.35;;;;;;;;;;7386493;19;20011;-71
2023/03/24 04:30:14;;;;;;;8.15;4.30;;;;;;;;;;7387981;19;19998;-72
2023/03/24 04:32:47;;;;;;;6.95;4.32;;;;;;;;;;7387374;19;20074;-70
2023/03/24 04:35:19;;;;;;;8.50;4.75;;;;;;;;;;7387367;19;20003;-70
2023/03/24 04:37:46;;;;;;;9.15;4.60;;;;;;;;;;7387416;19;20110;-72
2023/03/24 04:40:13;;;;;;;7.05;4.15;;;;;;;;;;7386413;19;20478;-70
2023/03/24 04:42:51;;;;;;;6.90;4.22;;;;;;;;;;7385005;19;20471;-71
2023/03/24 04:45:17;;;;;;;11.10;5.00;;;;;;;;;;7386658;19;20003;-70
2023/03/24 04:47:48;;;;;;;9.77;5.05;;;;;;;;;;7384923;19;20022;-69
2023/03/24 04:50:29;;;;;;;9.75;5.03;;;;;;;;;;7383333;19;20487;-69
2023/03/24 04:52:54;;;;;;;15.82;7.25;;;;;;;;;;7386500;19;19990;-72
2023/03/24 04:55:19;;;;;;;8.90;5.00;;;;;;;;;;7386254;19;20002;-71
2023/03/24 04:57:45;;;;;;;7.40;4.00;;;;;;;;;;7384748;19;19994;-70
2023/03/24 05:00:11;;;;;;;11.32;6.18;;;;;;;;;;7383993;19;20260;-69
2023/03/24 05:02:37;;;;;;;9.25;5.35;;;;;;;;;;7385134;19;20412;-70
2023/03/24 05:05:02;;;;;;;8.70;5.53;;;;;;;;;;7390240;19;19994;-70
2023/03/24 05:07:28;;;;;;;11.27;6.15;;;;;;;;;;7382306;19;20010;-69
2023/03/24 05:09:53;;;;;;;7.60;4.53;;;;;;;;;;7388873;19;20002;-70
2023/03/24 05:12:19;;;;;;;8.32;5.60;;;;;;;;;;7388936;19;19999;-71
2023/03/24 05:14:45;;;;;;;8.98;4.93;;;;;;;;;;7388087;19;19999;-70
2023/03/24 05:17:10;;;;;;;9.02;4.88;;;;;;;;;;7387727;19;20001;-72
2023/03/24 05:19:36;;;;;;;7.10;4.03;;;;;;;;;;7395379;19;20026;-71
2023/03/24 05:22:01;;;;;;;8.82;4.38;;;;;;;;;;7394851;19;20478;-69
2023/03/24 05:24:26;;;;;;;6.78;4.78;;;;;;;;;;7400908;19;19998;-69
2023/03/24 05:26:52;;;;;;;6.47;3.75;;;;;;;;;;7394871;19;20005;-69
2023/03/24 05:29:17;;;;;;;9.00;4.40;;;;;;;;;;7394896;19;20065;-72
2023/03/24 05:31:43;;;;;;;7.18;4.20;;;;;;;;;;7392139;19;20030;-71
2023/03/24 05:34:09;;;;;;;9.57;4.20;;;;;;;;;;7392188;19;20003;-72
2023/03/24 05:36:35;;;;;;;6.93;4.20;;;;;;;;;;7391428;19;20002;-71
2023/03/24 05:39:00;;;;;;;6.43;4.22;;;;;;;;;;7396791;19;20565;-74
2023/03/24 05:41:25;;;;;;;6.85;4.57;;;;;;;;;;7393593;19;20015;-69
2023/03/24 05:43:50;;;;;;;7.88;4.65;;;;;;;;;;7393422;19;19991;-72
2023/03/24 05:46:16;;;;;;;5.85;3.80;;;;;;;;;;7391822;19;20010;-71
2023/03/24 05:48:41;;;;;;;7.57;4.07;;;;;;;;;;7393607;19;19998;-72
2023/03/24 05:51:07;;;;;;;6.72;3.70;;;;;;;;;;7393299;19;20002;-71
2023/03/24 05:53:32;;;;;;;5.88;3.70;;;;;;;;;;7390549;19;20006;-72
2023/03/24 05:55:58;;;;;;;5.47;3.42;;;;;;;;;;7391654;19;20471;-70
2023/03/24 05:58:23;;;;;;;6.15;3.15;;;;;;;;;;7389402;19;20412;-71
2023/03/24 06:00:49;;;;;;;6.93;3.13;;;;;;;;;;7390103;19;19995;-71
2023/03/24 06:03:15;;;;;;;6.53;3.00;;;;;;;;;;7390008;19;20387;-71
2023/03/24 06:05:44;;;;;;;5.28;2.80;;;;;;;;;;7393539;19;20010;-71
2023/03/24 06:08:10;;;;;;;4.57;2.60;;;;;;;;;;7381228;19;20010;-72
2023/03/24 06:10:35;;;;;;;4.22;2.65;;;;;;;;;;7393398;19;20002;-70
2023/03/24 06:13:01;;;;;;;3.78;2.40;;;;;;;;;;7394667;19;20042;-70
2023/03/24 06:15:26;;;;;;;4.43;2.55;;;;;;;;;;7391252;19;19994;-70
2023/03/24 06:17:53;;;;;;;4.50;2.60;;;;;;;;;;7392915;19;20030;-72
2023/03/24 06:20:19;;;;;;;4.22;2.30;;;;;;;;;;7390853;19;20369;-70
2023/03/24 06:22:46;;;;;;;3.97;2.47;;;;;;;;;;7389182;19;20066;-71
2023/03/24 06:25:14;;;;;;;4.22;2.45;;;;;;;;;;7389044;19;20470;-71
2023/03/24 06:27:44;;;;;;;5.18;3.00;;;;;;;;;;7389044;19;20009;-71
2023/03/24 06:30:11;;;;;;;5.63;2.40;;;;;;;;;;7387344;19;19994;-71
2023/03/24 06:32:37;;;;;;;5.78;2.92;;;;;;;;;;7392329;19;20004;-72
2023/03/24 06:35:02;;;;;;;4.63;2.90;;;;;;;;;;7393483;19;20009;-70
2023/03/24 06:37:27;;;;;;;5.68;2.85;;;;;;;;;;7392145;19;20074;-71
2023/03/24 06:39:53;;;;;;;5.80;3.15;;;;;;;;;;7394777;19;20084;-71
2023/03/24 06:42:18;;;;;;;6.47;4.10;;;;;;;;;;7390986;19;20403;-73
2023/03/24 06:44:43;;;;;;;7.82;3.85;;;;;;;;;;7394262;19;20019;-71
2023/03/24 06:47:09;;;;;;;6.03;3.28;;;;;;;;;;7391314;19;20002;-71
2023/03/24 06:49:36;;;;;;;6.30;3.38;;;;;;;;;;7394286;19;20002;-69
2023/03/24 06:52:01;;;;;;;5.82;3.35;;;;;;;;;;7394951;19;20379;-71
2023/03/24 06:54:27;;;;;;;5.82;3.22;;;;;;;;;;7392996;19;20003;-70
2023/03/24 06:56:53;;;;;;;4.72;2.90;;;;;;;;;;7391163;19;20006;-69
2023/03/24 06:59:22;;;;;;;6.32;3.53;;;;;;;;;;7392371;19;19999;-70
2023/03/24 07:01:49;;;;;;;7.22;3.42;;;;;;;;;;7393102;19;20006;-69
2023/03/24 07:04:14;;;;;;;5.45;3.00;;;;;;;;;;7392254;19;19995;-72
2023/03/24 07:06:41;;;;;;;6.03;3.20;;;;;;;;;;7389392;19;20491;-69
2023/03/24 07:09:06;;;;;;;5.88;3.63;;;;;;;;;;7391636;19;20076;-71
2023/03/24 07:11:32;;;;;;;4.55;2.78;;;;;;;;;;7390177;19;19998;-68
2023/03/24 07:13:57;;;;;;;6.93;3.40;;;;;;;;;;7387519;19;20014;-70
2023/03/24 07:16:22;;;;;;;6.55;3.55;;;;;;;;;;7390638;19;20532;-71
2023/03/24 07:18:48;;;;;;;6.70;4.00;;;;;;;;;;7390836;19;20092;-70
2023/03/24 07:21:13;;;;;;;6.03;3.72;;;;;;;;;;7390852;19;19995;-71
2023/03/24 07:23:38;;;;;;;4.35;2.97;;;;;;;;;;7392707;19;20003;-69
2023/03/24 07:26:04;;;;;;;5.93;3.45;;;;;;;;;;7392944;19;20070;-70
2023/03/24 07:28:29;;;;;;;6.63;3.78;;;;;;;;;;7389611;19;20017;-70
2023/03/24 07:30:54;;;;;;;9.48;4.70;;;;;;;;;;7390585;19;20006;-61
2023/03/24 07:33:20;;;;;;;7.07;3.85;;;;;;;;;;7391500;19;19991;-61
2023/03/24 07:35:46;;;;;;;6.80;4.00;;;;;;;;;;7392096;19;19994;-61
2023/03/24 07:38:11;;;;;;;7.93;4.35;;;;;;;;;;7391703;19;19999;-61
2023/03/24 07:40:37;;;;;;;7.13;3.97;;;;;;;;;;7389816;19;19999;-61
2023/03/24 07:43:04;;;;;;;6.78;4.32;;;;;;;;;;7392110;19;19999;-70
2023/03/24 07:45:30;;;;;;;10.23;4.13;;;;;;;;;;7391813;19;19998;-70
2023/03/24 07:48:00;;;;;;;7.50;4.40;;;;;;;;;;7389225;19;20002;-70
2023/03/24 07:50:29;;;;;;;6.72;3.88;;;;;;;;;;7389691;19;20002;-70
2023/03/24 07:52:54;;;;;;;8.23;4.43;;;;;;;;;;7389424;19;20006;-69
2023/03/24 07:55:20;;;;;;;9.65;4.78;;;;;;;;;;7390592;19;20019;-71
2023/03/24 07:57:46;;;;;;;9.48;4.93;;;;;;;;;;7389363;19;19999;-71
2023/03/24 08:00:23;;;;;;;9.18;5.05;;;;;;;;;;7390784;19;20002;-71
2023/03/24 08:02:51;;;;;;;8.13;5.10;;;;;;;;;;7388832;19;20455;-71
2023/03/24 08:05:18;;;;;;;9.57;5.13;;;;;;;;;;7389259;19;20027;-70
2023/03/24 08:07:52;;;;;;;12.82;4.88;;;;;;;;;;7388099;19;20002;-71
2023/03/24 08:10:19;;;;;;;7.15;4.53;;;;;;;;;;7389616;19;20404;-70
2023/03/24 08:12:45;;;;;;;9.25;5.43;;;;;;;;;;7388448;19;20003;-70
2023/03/24 08:15:10;;;;;;;9.38;4.97;;;;;;;;;;7388801;19;20002;-70
2023/03/24 08:17:36;;;;;;;8.45;5.00;;;;;;;;;;7388731;19;20003;-69
2023/03/24 08:20:13;;;;;;;7.68;4.90;;;;;;;;;;7386060;19;20535;-70
2023/03/24 08:22:43;;;;;;;8.18;5.18;;;;;;;;;;7387943;19;20039;-68
2023/03/24 08:25:11;;;;;;;7.75;4.90;;;;;;;;;;7388071;19;20421;-70
2023/03/24 08:27:37;;;;;;;10.57;4.60;;;;;;;;;;7388098;19;20086;-70
2023/03/24 08:30:04;;;;;;;8.35;5.07;;;;;;;;;;7390606;19;20001;-70
2023/03/24 08:32:30;;;;;;;10.32;5.53;;;;;;;;;;7387114;19;20006;-70
2023/03/24 08:34:56;;;;;;;14.13;4.82;;;;;;;;;;7387724;19;20027;-70
2023/03/24 08:37:22;;;;;;;6.15;3.03;;;;;;;;;;7388137;19;20023;-71
2023/03/24 08:39:47;;;;;;;8.07;3.55;;;;;;;;;;7389654;19;20026;-71
2023/03/24 08:42:12;;;;;;;9.13;5.07;;;;;;;;;;7389572;19;20002;-71
2023/03/24 08:44:38;;;;;;;11.35;5.50;;;;;;;;;;7387935;19;20021;-70
2023/03/24 08:47:03;;;;;;;11.15;5.57;;;;;;;;;;7386467;19;19998;-72
2023/03/24 08:49:28;;;;;;;10.63;5.28;;;;;;;;;;7389238;19;20003;-70
2023/03/24 08:51:54;;;;;;;8.50;4.90;;;;;;;;;;7389254;19;20519;-72
2023/03/24 08:54:22;;;;;;;6.97;2.90;;;;;;;;;;7392695;19;19998;-70
2023/03/24 08:56:47;;;;;;;2.65;1.90;;;;;;;;;;7393988;19;20465;-71
2023/03/24 08:59:13;;;;;;;7.38;2.08;;;;;;;;;;7396298;19;20010;-71
2023/03/24 09:01:38;;;;;;;1.35;1.20;;;;;;;;;;7396919;19;19998;-71
2023/03/24 09:04:04;;;;;;;3.75;1.17;;;;;;;;;;7398366;19;20005;-71
2023/03/24 09:06:31;;;;;;;4.63;1.48;;;;;;;;;;7395730;19;20467;-71
2023/03/24 09:08:57;;;;;;;1.90;1.30;;;;;;;;;;7394362;19;20013;-72
2023/03/24 09:11:23;;;;;;;1.83;1.20;;;;;;;;;;7395769;19;20003;-72
2023/03/24 09:13:48;;;;;;;3.42;1.30;;;;;;;;;;7398124;19;20072;-72
2023/03/24 09:16:15;;;;;;;4.90;1.48;;;;;;;;;;7396328;19;20006;-71
2023/03/24 09:18:41;;;;;;;6.00;1.30;;;;;;;;;;7397199;19;20025;-71
2023/03/24 09:21:07;;;;;;;1.83;1.42;;;;;;;;;;7398493;19;20003;-72
2023/03/24 09:23:33;;;;;;;3.25;1.48;;;;;;;;;;7396244;19;20490;-71
2023/03/24 09:26:02;;;;;;;1.73;1.30;;;;;;;;;;7396148;19;20496;-71
2023/03/24 09:28:28;;;;;;;1.02;0.90;;;;;;;;;;7394892;19;20019;-72
2023/03/24 09:30:58;;;;;;;2.28;1.15;;;;;;;;;;7394264;19;20040;-71
2023/03/24 09:33:23;;;;;;;1.50;0.85;;;;;;;;;;7395383;19;19998;-71
2023/03/24 09:35:56;;;;;;;4.78;1.40;;;;;;;;;;7393391;19;20386;-72
2023/03/24 09:38:21;;;;;;;2.72;1.40;;;;;;;;;;7395659;19;19998;-71
2023/03/24 09:40:53;;;;;;;1.38;1.20;;;;;;;;;;7394988;19;20325;-71
2023/03/24 09:43:18;;;;;;;2.28;1.30;;;;;;;;;;7395540;19;20407;-71
2023/03/24 09:45:49;;;;;;;3.90;1.30;;;;;;;;;;7394791;19;20119;-71
2023/03/24 09:48:21;;;;;;;2.95;1.00;;;;;;;;;;7393007;19;20011;-71
2023/03/24 09:50:46;;;;;;;2.60;1.20;;;;;;;;;;7394967;19;19995;-71
2023/03/24 09:53:42;;;;;;;1.75;0.98;;;;;;;;;;7394612;19;20389;-72
2023/03/24 09:56:13;;;;;;;1.70;1.30;;;;;;;;;;7395527;19;19998;-72
2023/03/24 09:58:40;;;;;;;3.70;1.10;;;;;;;;;;7393170;19;20002;-72
2023/03/24 10:01:13;;;;;;;6.00;1.20;;;;;;;;;;7393148;19;20010;-72
2023/03/24 10:03:38;;;;;;;1.83;0.90;;;;;;;;;;7392888;19;20005;-73
2023/03/24 10:06:07;;;;;;;1.63;1.02;;;;;;;;;;7394673;19;19999;-73
2023/03/24 10:08:41;;;;;;;1.58;1.15;;;;;;;;;;7392671;19;20410;-73
2023/03/24 10:11:45;;;;;;;2.10;1.05;;;;;;;;;;7392353;19;20005;-73
2023/03/24 10:14:11;;;;;;;1.73;0.90;;;;;;;;;;7391039;19;20444;-72
2023/03/24 10:16:58;;;;;;;1.40;1.10;;;;;;;;;;7389387;19;20002;-73
2023/03/24 10:19:47;;;;;;;1.05;0.90;;;;;;;;;;7394389;19;19995;-72
2023/03/24 10:22:21;;;;;;;8.52;1.13;;;;;;;;;;7395186;19;20294;-72
2023/03/24 10:25:11;;;;;;;0.77;0.77;;;;;;;;;;7392098;19;19991;-72
2023/03/24 10:27:42;;;;;;;1.80;1.10;;;;;;;;;;7392162;19;20010;-70
2023/03/24 10:30:18;;;;;;;2.90;1.13;;;;;;;;;;7393940;19;20054;-72
2023/03/24 10:32:44;;;;;;;1.50;1.10;;;;;;;;;;7394583;19;19994;-72
2023/03/24 10:35:23;;;;;;;1.35;0.98;;;;;;;;;;7392259;19;19999;-72
2023/03/24 10:37:50;;;;;;;1.15;1.00;;;;;;;;;;7392181;19;19999;-72
2023/03/24 10:40:24;;;;;;;0.88;0.73;;;;;;;;;;7389830;19;19998;-72
2023/03/24 10:42:49;;;;;;;1.10;0.93;;;;;;;;;;7392044;19;20033;-72
2023/03/24 10:45:26;;;;;;;1.50;0.75;;;;;;;;;;7394149;19;20149;-72
2023/03/24 10:47:55;;;;;;;2.08;1.00;;;;;;;;;;7391947;19;20467;-72
2023/03/24 10:50:23;;;;;;;1.38;0.90;;;;;;;;;;7389964;19;20001;-73
2023/03/24 10:52:49;;;;;;;2.22;0.93;;;;;;;;;;7390419;19;20016;-72
2023/03/24 10:55:18;;;;;;;1.08;0.93;;;;;;;;;;7392528;19;20019;-70
2023/03/24 10:57:49;;;;;;;1.95;1.05;;;;;;;;;;7390191;19;19998;-72
2023/03/24 11:00:23;;;;;;;2.40;1.20;;;;;;;;;;7389892;19;20007;-71
2023/03/24 11:03:04;;;;;;;1.05;0.90;;;;;;;;;;7389876;19;20058;-71
2023/03/24 11:05:33;;;;;;;2.47;1.10;;;;;;;;;;7393357;19;20412;-72
2023/03/24 11:08:24;;;;;;;1.75;1.20;;;;;;;;;;7391637;19;20486;-72
2023/03/24 11:10:50;;;;;;;2.40;1.00;;;;;;;;;;7390236;19;20002;-72
2023/03/24 11:13:28;;;;;;;3.22;0.90;;;;;;;;;;7392497;19;19999;-72
2023/03/24 11:16:08;;;;;;;3.65;1.27;;;;;;;;;;7390870;19;19999;-72
2023/03/24 11:18:33;;;;;;;2.88;1.42;;;;;;;;;;7390382;19;20023;-71
2023/03/24 11:21:03;;;;;;;2.88;1.30;;;;;;;;;;7389533;19;20002;-72
2023/03/24 11:23:32;;;;;;;3.35;1.33;;;;;;;;;;7392407;19;20358;-72
2023/03/24 11:26:03;;;;;;;4.25;1.40;;;;;;;;;;7391755;19;20010;-72
2023/03/24 11:28:34;;;;;;;5.13;1.38;;;;;;;;;;7391504;19;20002;-71
2023/03/24 11:31:06;;;;;;;2.28;1.25;;;;;;;;;;7388983;19;20398;-72
2023/03/24 11:33:35;;;;;;;5.85;1.38;;;;;;;;;;7390573;19;20040;-72
2023/03/24 11:36:02;;;;;;;6.80;1.38;;;;;;;;;;7387953;19;20002;-72
2023/03/24 11:38:30;;;;;;;3.92;1.45;;;;;;;;;;7386152;19;20376;-72
2023/03/24 11:41:00;;;;;;;5.30;1.40;;;;;;;;;;7385302;19;19995;-71
2023/03/24 11:43:26;;;;;;;3.30;1.30;;;;;;;;;;7386887;19;20317;-71
2023/03/24 11:46:15;;;;;;;6.50;1.50;;;;;;;;;;7386700;19;20054;-71
2023/03/24 11:48:50;;;;;;;3.50;1.08;;;;;;;;;;7386235;19;20043;-72
2023/03/24 11:51:31;;;;;;;3.25;1.10;;;;;;;;;;7389496;19;20003;-71
2023/03/24 11:53:58;;;;;;;;;;;;;;;;;;7392664;19;20006;-71
2023/03/24 11:56:34;;;;;;;5.60;1.33;;;;;;;;;;7388747;19;19911;-71
2023/03/24 11:59:36;;;;;;;7.53;1.30;;;;;;;;;;7388938;19;20464;-71
2023/03/24 12:02:11;;;;;;;4.20;1.20;;;;;;;;;;7390213;19;20030;-71
2023/03/24 12:05:01;;;;;;;5.47;1.23;;;;;;;;;;7387372;19;20118;-72
2023/03/24 12:07:52;;;;;;;3.67;1.27;;;;;;;;;;7387570;19;20028;-71
2023/03/24 12:11:07;;;;;;;3.15;1.23;;;;;;;;;;7382795;19;20478;-71
2023/03/24 12:13:39;;;;;;;4.30;1.10;;;;;;;;;;7386962;19;20010;-71
2023/03/24 12:16:31;;;;;;;4.43;1.17;;;;;;;;;;7387244;19;20007;-70
2023/03/24 12:19:22;;;;;;;2.75;1.15;;;;;;;;;;7388324;19;20025;-72
2023/03/24 12:22:05;;;;;;;3.63;1.08;;;;;;;;;;7388823;19;20002;-71
2023/03/24 12:24:52;;;;;;;4.25;1.15;;;;;;;;;;7388542;19;19998;-70
2023/03/24 12:27:59;;;;;;;2.42;1.05;;;;;;;;;;7385451;19;20472;-71
2023/03/24 12:30:52;;;;;;;4.03;1.30;;;;;;;;;;7385811;19;20009;-69
2023/03/24 12:33:36;;;;;;;5.85;1.40;;;;;;;;;;7389482;19;20003;-70
2023/03/24 12:36:30;;;;;;;2.55;1.30;;;;;;;;;;7390572;19;20010;-71
2023/03/24 12:39:08;;;;;;;2.42;1.40;;;;;;;;;;7389001;19;19999;-71
2023/03/24 12:41:47;;;;;;;7.22;1.42;;;;;;;;;;7390313;19;20002;-70
2023/03/24 12:44:31;;;;;;;4.57;1.40;;;;;;;;;;7387708;19;19994;-71
2023/03/24 12:47:28;;;;;;;6.25;1.45;;;;;;;;;;7390301;19;20035;-70
2023/03/24 12:50:19;;;;;;;5.05;1.30;;;;;;;;;;7392977;19;20337;-69
2023/03/24 12:52:55;;;;;;;6.47;1.55;;;;;;;;;;7388916;19;20065;-69
2023/03/24 12:55:29;;;;;;;5.07;1.45;;;;;;;;;;7388173;19;20006;-70
2023/03/24 12:58:13;;;;;;;3.90;1.20;;;;;;;;;;7388924;19;19995;-70
2023/03/24 13:00:54;;;;;;;4.13;1.30;;;;;;;;;;7388133;19;20345;-71
2023/03/24 13:03:46;;;;;;;6.03;1.60;;;;;;;;;;7386619;19;20102;-71
2023/03/24 13:06:28;;;;;;;3.75;1.20;;;;;;;;;;7387514;19;20078;-71
2023/03/24 13:09:12;;;;;;;7.38;1.60;;;;;;;;;;7390094;19;20017;-70
2023/03/24 13:11:47;;;;;;;7.63;1.30;;;;;;;;;;7389106;19;20306;-70
2023/03/24 13:14:19;;;;;;;2.75;1.35;;;;;;;;;;7388622;19;20010;-71
2023/03/24 13:16:46;;;;;;;3.55;1.23;;;;;;;;;;7389387;19;20002;-72
2023/03/24 13:19:23;;;;;;;3.33;1.38;;;;;;;;;;7385819;19;20027;-73
2023/03/24 13:21:53;;;;;;;4.57;1.33;;;;;;;;;;7385705;19;20033;-73
2023/03/24 13:24:19;;;;;;;5.03;1.45;;;;;;;;;;7388536;19;20366;-73
2023/03/24 13:26:57;;;;;;;3.65;1.15;;;;;;;;;;7384251;19;20495;-70
2023/03/24 13:29:28;;;;;;;3.95;1.35;;;;;;;;;;7384280;19;20400;-68
2023/03/24 13:32:07;;;;;;;3.38;1.30;;;;;;;;;;7383326;19;20027;-71
2023/03/24 13:34:39;;;;;;;3.22;1.35;;;;;;;;;;7384697;19;20023;-70
2023/03/24 13:37:11;;;;;;;3.92;1.42;;;;;;;;;;7387772;19;20002;-70
2023/03/24 13:39:37;;;;;;;3.97;1.30;;;;;;;;;;7390667;19;20358;-71
2023/03/24 13:42:04;;;;;;;4.53;1.38;;;;;;;;;;7393057;19;20005;-71
2023/03/24 13:44:45;;;;;;;4.57;1.52;;;;;;;;;;7390792;19;20527;-69
2023/03/24 13:47:14;;;;;;;4.50;1.33;;;;;;;;;;7383298;19;20081;-70
2023/03/24 13:49:44;;;;;;;3.47;1.63;;;;;;;;;;7384335;19;20011;-72
2023/03/24 13:52:22;;;;;;;4.65;1.20;;;;;;;;;;7388859;19;20006;-71
2023/03/24 13:54:48;;;;;;;7.75;1.30;;;;;;;;;;7384264;19;20078;-71
2023/03/24 13:57:19;;;;;;;5.28;1.40;;;;;;;;;;7383027;19;20030;-71
2023/03/24 13:59:58;;;;;;;4.13;1.33;;;;;;;;;;7388342;19;20018;-70
2023/03/24 14:02:29;;;;;;;4.53;1.50;;;;;;;;;;7389374;19;19999;-71
2023/03/24 14:05:05;;;;;;;4.68;1.13;;;;;;;;;;7391260;19;20007;-70
2023/03/24 14:07:41;;;;;;;5.15;1.40;;;;;;;;;;7389310;19;20078;-71
2023/03/24 14:10:12;;;;;;;4.88;1.40;;;;;;;;;;7391717;19;20007;-71
2023/03/24 14:12:57;;;;;;;3.05;1.30;;;;;;;;;;7391719;19;20003;-71
2023/03/24 14:15:43;;;;;;;4.68;1.75;;;;;;;;;;7395745;19;20274;-71
2023/03/24 14:18:23;;;;;;;4.82;1.42;;;;;;;;;;7391721;19;19994;-70
2023/03/24 14:20:55;;;;;;;3.78;1.73;;;;;;;;;;7395769;19;20007;-70
2023/03/24 14:23:39;;;;;;;4.97;1.30;;;;;;;;;;7392105;19;20460;-71
2023/03/24 14:26:10;;;;;;;2.42;1.00;;;;;;;;;;7389943;19;20002;-71
2023/03/24 14:28:46;;;;;;;4.18;1.20;;;;;;;;;;7394613;19;20283;-70
2023/03/24 14:31:14;;;;;;;3.00;1.33;;;;;;;;;;7390872;19;20093;-71
2023/03/24 14:34:01;;;;;;;3.97;1.30;;;;;;;;;;7391831;19;20854;-71
2023/03/24 14:36:39;;;;;;;2.85;1.10;;;;;;;;;;7389889;19;20082;-71
2023/03/24 14:39:23;;;;;;;5.57;1.85;;;;;;;;;;7391486;19;20031;-69
2023/03/24 14:41:50;;;;;;;4.18;1.80;;;;;;;;;;7390688;19;20364;-70
2023/03/24 14:44:45;;;;;;;5.40;1.13;;;;;;;;;;7391026;19;20027;-73
2023/03/24 14:47:34;;;;;;;3.45;1.10;;;;;;;;;;7389439;19;20007;-72
2023/03/24 14:50:18;;;;;;;4.47;1.52;;;;;;;;;;7387323;19;19999;-71
2023/03/24 14:52:51;;;;;;;2.10;1.13;;;;;;;;;;7390464;19;20013;-71
2023/03/24 14:55:18;;;;;;;5.47;1.40;;;;;;;;;;7390324;19;20374;-71
2023/03/24 14:57:47;;;;;;;2.03;1.55;;;;;;;;;;7389539;19;19999;-71
2023/03/24 15:00:41;;;;;;;5.00;1.20;;;;;;;;;;7387580;19;20054;-71
2023/03/24 15:03:22;;;;;;;4.68;1.60;;;;;;;;;;7387654;19;20019;-70
2023/03/24 15:05:47;;;;;;;3.47;1.20;;;;;;;;;;7389653;19;20005;-71
2023/03/24 15:08:20;;;;;;;4.18;1.40;;;;;;;;;;7390016;19;20073;-71
2023/03/24 15:10:51;;;;;;;2.78;1.38;;;;;;;;;;7387662;19;20341;-70
2023/03/24 15:13:41;;;;;;;2.20;1.30;;;;;;;;;;7389552;19;19999;-72